Time;durP1;ratioP1;P1;durP2;ratioP2;P2;SDS_P1;SDS_P2;PMS_P1;PMS_P2;Temp;Humidity;BMP_temperature;BMP_pressure;BME280_temperature;BME280_humidity;BME280_pressure;Samples;Min_cycle;Max_cycle;Signal;HPM_P1;HPM_P2
2024/03/21 00:01:42;;;;;;;18.42;11.48;;;9.20;99.90;;;;;;5063649;28;20518;-43
2024/03/21 00:04:08;;;;;;;13.88;10.55;;;9.10;99.90;;;;;;5069662;28;20519;-46
2024/03/21 00:06:35;;;;;;;15.82;11.32;;;9.10;99.90;;;;;;5063569;28;20117;-49
2024/03/21 00:09:01;;;;;;;17.20;10.98;;;9.10;99.90;;;;;;5067281;28;20352;-45
2024/03/21 00:11:27;;;;;;;16.98;11.32;;;9.20;99.90;;;;;;5064352;28;20172;-44
2024/03/21 00:13:53;;;;;;;20.67;13.23;;;9.20;99.90;;;;;;5068039;28;20049;-46
2024/03/21 00:16:19;;;;;;;16.35;11.82;;;9.10;99.90;;;;;;5066270;28;20485;-43
2024/03/21 00:18:45;;;;;;;18.30;12.98;;;9.10;99.90;;;;;;5067211;28;20044;-44
2024/03/21 00:21:11;;;;;;;22.50;12.55;;;9.20;99.90;;;;;;5071334;28;20102;-44
2024/03/21 00:23:37;;;;;;;16.38;11.27;;;9.20;99.90;;;;;;5061555;28;20074;-46
2024/03/21 00:26:03;;;;;;;16.20;11.60;;;9.10;99.90;;;;;;5079745;28;20051;-50
2024/03/21 00:28:29;;;;;;;18.73;12.20;;;9.10;99.90;;;;;;5059949;28;20037;-47
2024/03/21 00:30:56;;;;;;;18.63;11.27;;;9.10;99.90;;;;;;5064818;28;20484;-44
2024/03/21 00:33:23;;;;;;;17.60;11.70;;;9.00;99.90;;;;;;5065306;28;20056;-49
2024/03/21 00:35:49;;;;;;;18.75;12.00;;;9.00;99.90;;;;;;5060798;28;20044;-43
2024/03/21 00:38:15;;;;;;;17.75;12.10;;;9.00;99.90;;;;;;5058785;28;20044;-49
2024/03/21 00:40:41;;;;;;;17.00;11.30;;;9.00;99.90;;;;;;5063661;28;20063;-46
2024/03/21 00:43:07;;;;;;;16.42;11.43;;;8.90;99.90;;;;;;5067526;28;20151;-48
2024/03/21 00:45:34;;;;;;;17.77;11.95;;;8.90;99.90;;;;;;5071181;28;20043;-49
2024/03/21 00:48:02;;;;;;;17.20;10.98;;;8.90;99.90;;;;;;5068952;28;20472;-49
2024/03/21 00:50:32;;;;;;;16.13;10.82;;;8.90;99.90;;;;;;5081821;28;20040;-42
2024/03/21 00:52:58;;;;;;;16.85;11.60;;;8.80;99.90;;;;;;5071016;28;20578;-46
2024/03/21 00:55:24;;;;;;;15.70;10.90;;;8.80;99.90;;;;;;5076136;28;20047;-45
2024/03/21 00:57:50;;;;;;;21.73;12.10;;;8.80;99.90;;;;;;5070710;28;20040;-41
2024/03/21 01:00:16;;;;;;;18.13;11.35;;;8.80;99.90;;;;;;5067754;28;20055;-45
2024/03/21 01:02:42;;;;;;;16.58;11.13;;;8.80;99.90;;;;;;5069701;28;20436;-43
2024/03/21 01:05:10;;;;;;;20.60;12.02;;;8.80;99.90;;;;;;5070621;28;20153;-45
2024/03/21 01:07:36;;;;;;;17.23;12.05;;;8.70;99.90;;;;;;5076781;28;20032;-45
2024/03/21 01:10:03;;;;;;;17.88;12.30;;;8.70;99.90;;;;;;5061576;28;20131;-45
2024/03/21 01:12:29;;;;;;;22.67;14.32;;;8.70;99.90;;;;;;5074087;28;20048;-44
2024/03/21 01:14:55;;;;;;;19.60;12.93;;;8.70;99.90;;;;;;5082155;28;20068;-48
2024/03/21 01:17:21;;;;;;;22.65;13.15;;;8.70;99.90;;;;;;5069581;28;20059;-46
2024/03/21 01:19:47;;;;;;;18.95;12.68;;;8.70;99.90;;;;;;5072127;28;20044;-44
2024/03/21 01:22:13;;;;;;;19.85;12.80;;;8.60;99.90;;;;;;5074254;28;20090;-44
2024/03/21 01:24:39;;;;;;;21.85;12.75;;;8.60;99.90;;;;;;5086956;28;20029;-44
2024/03/21 01:27:05;;;;;;;17.27;11.70;;;8.60;99.90;;;;;;5073055;28;20032;-42
2024/03/21 01:29:33;;;;;;;18.00;13.02;;;8.60;99.90;;;;;;5077706;28;20052;-44
2024/03/21 01:31:59;;;;;;;19.05;11.95;;;8.60;99.90;;;;;;5074650;28;20096;-45
2024/03/21 01:34:25;;;;;;;18.02;12.35;;;8.60;99.90;;;;;;5074196;28;20518;-46
2024/03/21 01:36:53;;;;;;;19.98;13.07;;;8.60;99.90;;;;;;5077031;28;20520;-47
2024/03/21 01:39:21;;;;;;;18.65;12.95;;;8.60;99.90;;;;;;5078353;28;20041;-44
2024/03/21 01:41:47;;;;;;;19.92;12.93;;;8.50;99.90;;;;;;5074414;28;20052;-45
2024/03/21 01:44:19;;;;;;;20.63;13.45;;;8.50;99.90;;;;;;5069675;28;20165;-42
2024/03/21 01:46:46;;;;;;;22.60;12.55;;;8.50;99.90;;;;;;5072467;28;20517;-45
2024/03/21 01:49:13;;;;;;;18.52;12.38;;;8.50;99.90;;;;;;5072323;28;20052;-48
2024/03/21 01:51:41;;;;;;;21.23;13.20;;;8.50;99.90;;;;;;5071192;28;20094;-46
2024/03/21 01:54:08;;;;;;;20.00;12.52;;;8.50;99.90;;;;;;5074142;28;20041;-46
2024/03/21 01:56:37;;;;;;;16.77;11.60;;;8.40;99.90;;;;;;5069256;28;20052;-44
2024/03/21 01:59:07;;;;;;;18.02;11.65;;;8.40;99.90;;;;;;5070322;28;20052;-46
2024/03/21 02:01:34;;;;;;;19.73;12.88;;;8.40;99.90;;;;;;5068825;28;20114;-46
2024/03/21 02:04:01;;;;;;;21.25;12.57;;;8.40;99.90;;;;;;5056859;28;20052;-46
2024/03/21 02:06:28;;;;;;;16.48;12.05;;;8.40;99.90;;;;;;5074787;28;20105;-42
2024/03/21 02:08:55;;;;;;;17.20;12.27;;;8.40;99.90;;;;;;5051337;28;20045;-47
2024/03/21 02:11:22;;;;;;;16.77;11.48;;;8.30;99.90;;;;;;5074449;28;20040;-45
2024/03/21 02:13:49;;;;;;;18.10;11.88;;;8.30;99.90;;;;;;5069670;28;20040;-47
2024/03/21 02:16:15;;;;;;;19.38;13.00;;;8.30;99.90;;;;;;5071645;28;20040;-43
2024/03/21 02:18:42;;;;;;;19.33;12.77;;;8.30;99.90;;;;;;5070916;28;20044;-43
2024/03/21 02:22:35;;;;;;;18.95;12.85;;;8.20;99.90;;;;;;5075125;28;20044;-42
2024/03/21 02:23:54;;;;;;;19.20;12.32;;;8.20;99.90;;;;;;5064492;28;20661;-44
2024/03/21 02:26:24;;;;;;;21.08;13.85;;;8.20;99.90;;;;;;5071590;28;20245;-44
2024/03/21 02:28:50;;;;;;;21.50;12.93;;;8.20;99.90;;;;;;5076637;28;20425;-42
2024/03/21 02:31:20;;;;;;;19.30;13.40;;;8.20;99.90;;;;;;5077037;28;20036;-43
2024/03/21 02:33:47;;;;;;;22.70;12.85;;;8.20;99.90;;;;;;5073393;28;20056;-43
2024/03/21 02:36:13;;;;;;;18.90;12.13;;;8.20;99.90;;;;;;5069343;28;20044;-44
2024/03/21 02:38:40;;;;;;;19.90;13.15;;;8.20;99.90;;;;;;5072370;28;20509;-43
2024/03/21 02:41:06;;;;;;;18.15;12.10;;;8.20;99.90;;;;;;5070427;28;20041;-45
2024/03/21 02:43:32;;;;;;;19.50;13.18;;;8.30;99.90;;;;;;5070517;28;20033;-44
2024/03/21 02:45:58;;;;;;;19.17;13.00;;;8.30;99.90;;;;;;5079176;28;20245;-40
2024/03/21 02:48:25;;;;;;;23.30;13.07;;;8.30;99.90;;;;;;5069803;28;20114;-42
2024/03/21 02:50:51;;;;;;;21.38;13.23;;;8.40;99.90;;;;;;5071982;28;20043;-45
2024/03/21 02:53:17;;;;;;;17.02;12.55;;;8.40;99.90;;;;;;5080342;28;20044;-45
2024/03/21 02:55:43;;;;;;;21.40;12.10;;;8.40;99.90;;;;;;5071442;28;20052;-43
2024/03/21 02:58:09;;;;;;;18.85;12.85;;;8.30;99.90;;;;;;5067496;28;20551;-45
2024/03/21 03:00:34;;;;;;;19.58;13.15;;;8.40;99.90;;;;;;5069105;28;20067;-41
2024/03/21 03:03:00;;;;;;;20.58;12.70;;;8.40;99.90;;;;;;5070684;28;20405;-50
2024/03/21 03:05:26;;;;;;;19.30;12.77;;;8.40;99.90;;;;;;5072195;28;20465;-42
2024/03/21 03:07:52;;;;;;;23.27;12.65;;;8.30;99.90;;;;;;5071690;28;20045;-44
2024/03/21 03:10:18;;;;;;;22.42;13.32;;;8.30;99.90;;;;;;5069122;28;20040;-43
2024/03/21 03:12:44;;;;;;;19.25;11.73;;;8.30;99.90;;;;;;5070229;28;20106;-46
2024/03/21 03:15:10;;;;;;;18.50;11.98;;;8.30;99.90;;;;;;5069048;28;20048;-45
2024/03/21 03:17:36;;;;;;;19.73;13.30;;;8.30;99.90;;;;;;5067617;28;20111;-42
2024/03/21 03:20:02;;;;;;;21.77;12.95;;;8.30;99.90;;;;;;5072654;28;20109;-43
2024/03/21 03:22:29;;;;;;;21.77;12.98;;;8.30;99.90;;;;;;5068571;28;20592;-41
2024/03/21 03:24:55;;;;;;;20.00;12.25;;;8.30;99.90;;;;;;5070988;28;20284;-45
2024/03/21 03:27:21;;;;;;;18.88;12.60;;;8.30;99.90;;;;;;5069701;28;20047;-46
2024/03/21 03:29:47;;;;;;;19.08;12.85;;;8.30;99.90;;;;;;5071286;28;20045;-42
2024/03/21 03:32:15;;;;;;;19.13;12.48;;;8.30;99.90;;;;;;5069817;28;20485;-46
2024/03/21 03:37:25;;;;;;;18.00;13.27;;;8.30;99.90;;;;;;5067106;28;20135;-49
2024/03/21 03:39:51;;;;;;;20.42;12.73;;;8.30;99.90;;;;;;5065451;28;20040;-46
2024/03/21 03:42:19;;;;;;;20.08;12.40;;;8.40;99.90;;;;;;5072633;28;20327;-42
2024/03/21 03:44:46;;;;;;;22.90;13.40;;;8.40;99.90;;;;;;5079257;28;20041;-49
2024/03/21 03:47:12;;;;;;;17.98;12.07;;;8.40;99.90;;;;;;5071169;28;20044;-45
2024/03/21 03:49:37;;;;;;;23.90;13.13;;;8.40;99.90;;;;;;5071331;28;20040;-48
2024/03/21 03:52:03;;;;;;;18.95;12.10;;;8.40;99.90;;;;;;5069972;28;20041;-44
2024/03/21 03:54:29;;;;;;;22.30;12.75;;;8.40;99.90;;;;;;5071054;28;20413;-41
2024/03/21 03:56:55;;;;;;;18.70;12.57;;;8.40;99.90;;;;;;5066453;28;20040;-45
2024/03/21 03:59:21;;;;;;;20.85;12.52;;;8.40;99.90;;;;;;5069639;28;20036;-41
2024/03/21 04:01:47;;;;;;;20.73;13.27;;;8.40;99.90;;;;;;5070838;28;20263;-44
2024/03/21 04:04:14;;;;;;;20.90;12.30;;;8.40;99.90;;;;;;5068830;28;20045;-48
2024/03/21 04:06:40;;;;;;;23.05;12.98;;;8.40;99.90;;;;;;5064427;28;20169;-46
2024/03/21 04:09:07;;;;;;;18.38;12.68;;;8.40;99.90;;;;;;5068425;28;20041;-42
2024/03/21 04:11:33;;;;;;;18.15;12.45;;;8.40;99.90;;;;;;5070742;28;20052;-47
2024/03/21 04:13:59;;;;;;;21.27;13.45;;;8.40;99.90;;;;;;5064045;28;20060;-43
2024/03/21 04:16:26;;;;;;;18.95;12.63;;;8.30;99.90;;;;;;5068867;28;20542;-40
2024/03/21 04:18:52;;;;;;;19.10;12.45;;;8.30;99.90;;;;;;5071212;28;20048;-49
2024/03/21 04:21:18;;;;;;;24.08;12.80;;;8.20;99.90;;;;;;5075786;28;20056;-46
2024/03/21 04:23:44;;;;;;;20.98;13.60;;;8.20;99.90;;;;;;5059280;28;20033;-44
2024/03/21 04:26:10;;;;;;;20.20;13.30;;;8.20;99.90;;;;;;5073019;28;20045;-46
2024/03/21 04:28:36;;;;;;;19.55;12.38;;;8.10;99.90;;;;;;5074610;28;20044;-44
2024/03/21 04:31:02;;;;;;;20.80;12.95;;;8.10;99.90;;;;;;5071490;28;20044;-43
2024/03/21 04:33:28;;;;;;;18.38;12.40;;;8.10;99.90;;;;;;5056902;28;20043;-43
2024/03/21 04:35:54;;;;;;;19.75;11.80;;;8.00;99.90;;;;;;5067967;28;20040;-46
2024/03/21 04:38:20;;;;;;;19.95;12.85;;;8.00;99.90;;;;;;5070724;28;20032;-44
2024/03/21 04:40:46;;;;;;;17.48;11.90;;;8.00;99.90;;;;;;5070978;28;20048;-47
2024/03/21 04:43:12;;;;;;;18.88;11.73;;;8.00;99.90;;;;;;5082005;28;20041;-49
2024/03/21 04:45:39;;;;;;;19.63;12.30;;;7.90;99.90;;;;;;5080001;28;20467;-44
2024/03/21 04:48:05;;;;;;;19.30;11.73;;;7.90;99.90;;;;;;5067413;28;20040;-45
2024/03/21 04:50:32;;;;;;;16.98;11.77;;;7.90;99.90;;;;;;5072833;28;20051;-43
2024/03/21 04:52:58;;;;;;;19.00;11.43;;;7.80;99.90;;;;;;5072673;28;20117;-45
2024/03/21 04:55:24;;;;;;;17.25;11.43;;;7.90;99.90;;;;;;5068529;28;20260;-43
2024/03/21 04:57:50;;;;;;;18.48;12.15;;;7.80;99.90;;;;;;5054021;28;20140;-43
2024/03/21 05:00:17;;;;;;;20.67;12.55;;;7.80;99.90;;;;;;5068451;28;20105;-44
2024/03/21 05:02:43;;;;;;;19.52;12.85;;;7.80;99.90;;;;;;5083447;28;20044;-48
2024/03/21 05:05:09;;;;;;;20.90;13.40;;;7.70;99.90;;;;;;5068648;28;20047;-45
2024/03/21 05:07:35;;;;;;;27.95;15.75;;;7.70;99.90;;;;;;5071850;28;20039;-44
2024/03/21 05:10:01;;;;;;;26.75;16.20;;;7.70;99.90;;;;;;5066789;28;20067;-48
2024/03/21 05:12:27;;;;;;;27.48;16.23;;;7.70;99.90;;;;;;5077275;28;20048;-48
2024/03/21 05:14:54;;;;;;;23.63;14.07;;;7.70;99.90;;;;;;5049548;28;20090;-46
2024/03/21 05:17:20;;;;;;;27.15;15.85;;;7.70;99.90;;;;;;5068403;28;20075;-46
2024/03/21 05:19:47;;;;;;;25.88;13.75;;;7.70;99.90;;;;;;5079471;28;20060;-44
2024/03/21 05:22:13;;;;;;;20.23;12.32;;;7.70;99.90;;;;;;5071210;28;20053;-44
2024/03/21 05:24:40;;;;;;;23.55;12.75;;;7.70;99.90;;;;;;5080708;28;20472;-46
2024/03/21 05:27:06;;;;;;;17.98;12.43;;;7.70;99.90;;;;;;5068144;28;20052;-48
2024/03/21 05:29:34;;;;;;;20.85;12.68;;;7.70;99.90;;;;;;5073472;28;20059;-47
2024/03/21 05:32:00;;;;;;;18.98;12.70;;;7.60;99.90;;;;;;5070817;28;20120;-45
2024/03/21 05:34:27;;;;;;;19.02;11.73;;;7.60;99.90;;;;;;5066124;28;20042;-41
2024/03/21 05:36:53;;;;;;;23.63;12.70;;;7.70;99.90;;;;;;5078432;28;20044;-41
2024/03/21 05:39:20;;;;;;;18.13;12.07;;;7.70;99.90;;;;;;5085198;28;20587;-42
2024/03/21 05:41:46;;;;;;;20.73;11.88;;;7.70;99.90;;;;;;5069278;28;20048;-49
2024/03/21 05:44:12;;;;;;;17.52;11.32;;;7.80;99.90;;;;;;5081049;28;20098;-46
2024/03/21 05:46:37;;;;;;;19.17;12.88;;;7.90;99.90;;;;;;5072896;28;20044;-46
2024/03/21 05:49:03;;;;;;;21.95;12.77;;;8.00;99.90;;;;;;5067028;28;20440;-46
2024/03/21 05:51:29;;;;;;;16.92;11.23;;;8.00;99.90;;;;;;5068351;28;20177;-47
2024/03/21 05:53:55;;;;;;;17.15;11.05;;;8.10;99.90;;;;;;5061755;28;20189;-45
2024/03/21 05:56:21;;;;;;;17.35;11.93;;;8.20;99.90;;;;;;5065386;28;20048;-46
2024/03/21 05:58:47;;;;;;;17.15;12.27;;;8.30;99.90;;;;;;5070186;28;20052;-43
2024/03/21 06:03:44;;;;;;;19.65;12.10;;;8.50;99.90;;;;;;5069914;28;20056;-43
2024/03/21 06:06:11;;;;;;;21.52;12.82;;;8.50;99.90;;;;;;5072340;28;20048;-45
2024/03/21 06:08:37;;;;;;;19.90;13.10;;;8.60;99.90;;;;;;5069170;28;20139;-49
2024/03/21 06:11:06;;;;;;;21.92;13.10;;;8.70;99.90;;;;;;5067900;28;20032;-47
2024/03/21 06:13:32;;;;;;;21.35;13.32;;;8.70;99.90;;;;;;5071517;28;20044;-41
2024/03/21 06:15:58;;;;;;;22.92;12.98;;;8.80;99.90;;;;;;5069346;28;20485;-43
2024/03/21 06:18:24;;;;;;;20.58;12.65;;;9.00;99.90;;;;;;5073131;28;20055;-41
2024/03/21 06:20:50;;;;;;;22.77;13.10;;;9.00;99.90;;;;;;5073453;28;20471;-42
2024/03/21 06:23:16;;;;;;;20.52;12.70;;;9.20;99.90;;;;;;5078103;28;20059;-44
2024/03/21 06:25:42;;;;;;;25.67;14.57;;;9.30;99.90;;;;;;5070682;28;20119;-43
2024/03/21 06:28:08;;;;;;;22.13;14.23;;;9.40;99.90;;;;;;5071169;28;20138;-44
2024/03/21 06:30:35;;;;;;;21.13;13.63;;;9.50;99.90;;;;;;5067258;28;20052;-45
2024/03/21 06:33:02;;;;;;;19.33;12.70;;;9.60;99.90;;;;;;5077567;28;20059;-46
2024/03/21 06:35:28;;;;;;;23.08;13.55;;;9.70;99.90;;;;;;5067576;28;20529;-47
2024/03/21 06:37:55;;;;;;;20.73;12.98;;;9.80;99.90;;;;;;5070357;28;20098;-45
2024/03/21 06:40:22;;;;;;;23.13;13.63;;;9.90;99.90;;;;;;5067868;28;20052;-47
2024/03/21 06:42:48;;;;;;;20.63;13.95;;;10.00;99.90;;;;;;5074058;28;20102;-43
2024/03/21 06:45:14;;;;;;;18.00;13.60;;;10.00;99.90;;;;;;5064028;28;20049;-40
2024/03/21 06:47:43;;;;;;;22.95;13.80;;;10.10;99.90;;;;;;5059891;28;20040;-43
2024/03/21 06:50:17;;;;;;;24.77;15.55;;;10.20;99.90;;;;;;5065576;28;20406;-47
2024/03/21 06:52:44;;;;;;;23.13;14.57;;;10.30;99.90;;;;;;5068286;28;20043;-40
2024/03/21 06:55:14;;;;;;;21.55;14.75;;;10.50;99.90;;;;;;5072296;28;20044;-45
2024/03/21 06:57:41;;;;;;;23.13;14.75;;;10.60;99.90;;;;;;5073813;28;20573;-47
2024/03/21 07:00:12;;;;;;;27.58;14.43;;;10.70;99.90;;;;;;5065415;28;20483;-46
2024/03/21 07:02:39;;;;;;;32.25;15.55;;;10.80;99.90;;;;;;5078212;28;20067;-45
2024/03/21 07:05:07;;;;;;;26.15;14.68;;;10.70;99.90;;;;;;5069285;28;20052;-46
2024/03/21 07:07:33;;;;;;;20.58;13.77;;;10.80;99.90;;;;;;5068517;28;20043;-46
2024/03/21 07:09:59;;;;;;;20.10;13.48;;;10.90;99.90;;;;;;5040535;28;20055;-42
2024/03/21 07:12:25;;;;;;;19.20;14.05;;;10.90;99.90;;;;;;5068515;28;20086;-45
2024/03/21 07:14:52;;;;;;;22.92;14.68;;;11.00;99.90;;;;;;5069294;28;20067;-45
2024/03/21 07:17:19;;;;;;;22.25;14.80;;;10.90;99.90;;;;;;5067896;28;20392;-43
2024/03/21 07:19:45;;;;;;;25.63;15.07;;;11.00;99.90;;;;;;5071110;28;20055;-46
2024/03/21 07:22:12;;;;;;;21.85;13.80;;;11.10;99.90;;;;;;5071896;28;21288;-43
2024/03/21 07:24:38;;;;;;;21.75;15.23;;;11.20;99.90;;;;;;5064415;28;20040;-44
2024/03/21 07:27:04;;;;;;;19.83;13.93;;;11.20;99.90;;;;;;5066663;28;20094;-45
2024/03/21 07:29:30;;;;;;;21.13;14.50;;;11.30;99.90;;;;;;5068120;28;20051;-43
2024/03/21 07:31:57;;;;;;;25.38;14.77;;;11.40;99.90;;;;;;5060223;28;20204;-44
2024/03/21 07:34:23;;;;;;;22.13;14.48;;;11.40;99.90;;;;;;5066704;28;20569;-48
2024/03/21 07:36:50;;;;;;;21.60;13.13;;;11.60;99.90;;;;;;5064884;28;20032;-45
2024/03/21 07:39:20;;;;;;;20.83;14.35;;;11.80;99.90;;;;;;5069428;28;20520;-41
2024/03/21 07:41:52;;;;;;;25.35;14.38;;;11.90;99.90;;;;;;5065205;28;20098;-44
2024/03/21 07:44:18;;;;;;;21.25;14.75;;;12.10;99.90;;;;;;5075837;28;20052;-45
2024/03/21 07:46:45;;;;;;;20.48;14.93;;;12.00;99.90;;;;;;5071158;28;20060;-43
2024/03/21 07:49:11;;;;;;;21.55;14.25;;;12.10;99.90;;;;;;5067038;28;20041;-45
2024/03/21 07:51:38;;;;;;;22.30;14.52;;;12.30;99.90;;;;;;5066124;28;20687;-41
2024/03/21 07:54:04;;;;;;;19.98;13.85;;;12.50;99.90;;;;;;5062853;28;20060;-48
2024/03/21 07:56:30;;;;;;;20.20;13.23;;;12.80;99.90;;;;;;5067687;28;20539;-45
2024/03/21 07:58:56;;;;;;;21.45;13.52;;;12.80;99.90;;;;;;5068003;28;20048;-47
2024/03/21 08:01:24;;;;;;;20.05;12.82;;;12.70;99.90;;;;;;5058380;28;20728;-48
2024/03/21 08:03:50;;;;;;;17.42;12.88;;;12.80;99.90;;;;;;5065774;28;20037;-44
2024/03/21 08:06:17;;;;;;;21.13;14.18;;;13.20;99.90;;;;;;5071301;28;20049;-44
2024/03/21 08:08:43;;;;;;;18.65;13.02;;;13.20;99.90;;;;;;5069947;28;20109;-43
2024/03/21 08:11:09;;;;;;;18.02;12.43;;;13.50;99.90;;;;;;5066321;28;20044;-44
2024/03/21 08:13:35;;;;;;;23.60;13.82;;;13.90;99.90;;;;;;5070444;28;20058;-45
2024/03/21 08:16:01;;;;;;;17.70;13.27;;;14.30;99.90;;;;;;5068700;28;20052;-46
2024/03/21 08:18:27;;;;;;;17.23;13.18;;;14.50;99.90;;;;;;5051199;28;20147;-48
2024/03/21 08:20:53;;;;;;;17.20;12.35;;;14.30;99.90;;;;;;5060746;28;20454;-45
2024/03/21 08:23:20;;;;;;;17.23;13.82;;;13.90;99.90;;;;;;5070118;28;20081;-46
2024/03/21 08:25:45;;;;;;;15.63;12.18;;;14.30;99.90;;;;;;5058528;28;20064;-46
2024/03/21 08:28:12;;;;;;;17.23;12.82;;;14.60;99.90;;;;;;5062775;28;20072;-42
2024/03/21 08:30:46;;;;;;;16.90;11.85;;;14.50;99.90;;;;;;5063446;28;20044;-42
2024/03/21 08:33:16;;;;;;;16.63;12.05;;;14.70;99.90;;;;;;5054028;28;20044;-43
2024/03/21 08:35:42;;;;;;;20.45;12.25;;;14.80;99.90;;;;;;5059738;28;20050;-44
2024/03/21 08:38:09;;;;;;;14.98;11.82;;;15.10;99.90;;;;;;5077665;28;20036;-44
2024/03/21 08:40:36;;;;;;;17.85;11.73;;;15.00;99.90;;;;;;5071786;28;20300;-52
2024/03/21 08:43:02;;;;;;;17.95;13.07;;;14.90;99.90;;;;;;5048339;28;20247;-47
2024/03/21 08:45:28;;;;;;;18.35;12.52;;;14.80;99.90;;;;;;5067190;28;20098;-45
2024/03/21 08:47:57;;;;;;;16.98;12.73;;;14.70;99.90;;;;;;5078439;28;20048;-43
2024/03/21 08:50:24;;;;;;;17.98;13.60;;;14.50;99.90;;;;;;5067887;28;20043;-46
2024/03/21 08:52:50;;;;;;;15.18;12.88;;;14.50;99.90;;;;;;5067846;28;20493;-46
2024/03/21 08:55:16;;;;;;;16.30;12.70;;;14.50;99.90;;;;;;5067167;28;20058;-45
2024/03/21 08:57:43;;;;;;;19.75;13.82;;;14.70;99.90;;;;;;5067727;28;20052;-46
2024/03/21 09:00:09;;;;;;;18.98;13.13;;;14.80;99.90;;;;;;5066006;28;20060;-44
2024/03/21 09:02:35;;;;;;;17.23;12.85;;;15.00;99.90;;;;;;5079865;28;20148;-47
2024/03/21 09:05:01;;;;;;;14.35;12.02;;;15.00;99.90;;;;;;5067191;28;20064;-50
2024/03/21 09:07:27;;;;;;;15.48;12.35;;;14.90;99.90;;;;;;5074084;28;20044;-46
2024/03/21 09:09:53;;;;;;;13.98;11.70;;;14.90;99.90;;;;;;5069054;28;20045;-49
2024/03/21 09:12:20;;;;;;;18.33;12.77;;;15.00;99.90;;;;;;5074868;28;20095;-47
2024/03/21 09:14:45;;;;;;;17.52;13.00;;;15.20;99.90;;;;;;5071236;28;20048;-47
2024/03/21 09:17:11;;;;;;;13.57;11.98;;;15.30;99.90;;;;;;5072664;28;20049;-52
2024/03/21 09:19:37;;;;;;;14.35;11.75;;;15.20;99.90;;;;;;5074254;28;20040;-46
2024/03/21 09:22:03;;;;;;;19.83;12.45;;;15.60;99.90;;;;;;5082547;28;20051;-44
2024/03/21 09:24:30;;;;;;;18.13;13.32;;;15.80;99.90;;;;;;5066731;28;20102;-47
2024/03/21 09:26:57;;;;;;;16.60;11.60;;;15.70;99.90;;;;;;5067672;28;20332;-49
2024/03/21 09:29:23;;;;;;;19.35;11.80;;;16.00;99.90;;;;;;5069768;28;20104;-52
2024/03/21 09:31:50;;;;;;;18.75;12.75;;;16.20;99.90;;;;;;5064424;28;20041;-49
2024/03/21 09:34:16;;;;;;;18.27;11.82;;;15.80;99.90;;;;;;5074250;28;20432;-45
2024/03/21 09:36:46;;;;;;;13.98;11.10;;;16.00;99.90;;;;;;5067006;28;20040;-46
2024/03/21 09:39:16;;;;;;;14.20;12.43;;;16.20;99.90;;;;;;5067011;28;20067;-42
2024/03/21 09:41:42;;;;;;;17.92;12.23;;;16.20;99.90;;;;;;5078115;28;20048;-45
2024/03/21 09:44:13;;;;;;;18.50;12.10;;;16.40;99.90;;;;;;5083011;28;20139;-43
2024/03/21 09:46:41;;;;;;;14.68;12.05;;;16.70;99.90;;;;;;5075591;28;20067;-48
2024/03/21 09:49:11;;;;;;;15.82;12.35;;;16.60;99.90;;;;;;5066848;28;20029;-45
2024/03/21 09:51:39;;;;;;;15.05;12.43;;;16.70;99.90;;;;;;5074827;28;20098;-47
2024/03/21 09:54:10;;;;;;;13.30;11.52;;;16.90;99.90;;;;;;5072449;28;20421;-45
2024/03/21 09:56:37;;;;;;;16.23;12.10;;;17.10;99.90;;;;;;5072048;28;20036;-47
2024/03/21 09:59:15;;;;;;;18.02;12.82;;;16.90;99.90;;;;;;5072529;28;20044;-46
2024/03/21 10:01:41;;;;;;;17.30;12.10;;;16.60;99.90;;;;;;5063379;28;20056;-47
2024/03/21 10:04:07;;;;;;;12.60;11.02;;;16.90;99.90;;;;;;5068241;28;20064;-43
2024/03/21 10:06:47;;;;;;;16.10;12.57;;;17.30;99.90;;;;;;5068512;28;20041;-49
2024/03/21 10:09:14;;;;;;;14.50;12.90;;;17.60;99.90;;;;;;5067824;28;20067;-44
2024/03/21 10:11:41;;;;;;;22.08;13.43;;;17.80;99.90;;;;;;5071894;28;20421;-43
2024/03/21 10:14:13;;;;;;;17.00;12.98;;;18.20;99.90;;;;;;5067360;28;20039;-44
2024/03/21 10:16:42;;;;;;;14.30;12.77;;;18.30;99.90;;;;;;5062065;28;20083;-50
2024/03/21 10:19:11;;;;;;;13.75;12.18;;;18.40;99.90;;;;;;5062817;28;20053;-47
2024/03/21 10:21:37;;;;;;;14.70;11.88;;;18.60;99.90;;;;;;5061094;28;20041;-45
2024/03/21 10:24:04;;;;;;;14.18;12.13;;;18.10;99.90;;;;;;5065772;28;20059;-47
2024/03/21 10:26:31;;;;;;;13.57;12.18;;;17.80;99.90;;;;;;5066775;28;20044;-49
2024/03/21 10:28:57;;;;;;;14.55;12.45;;;17.50;99.90;;;;;;5068782;28;20540;-42
2024/03/21 10:31:24;;;;;;;14.13;11.55;;;17.30;99.90;;;;;;5070283;28;20185;-47
2024/03/21 10:33:54;;;;;;;12.40;11.10;;;17.60;99.90;;;;;;5071884;28;20036;-46
2024/03/21 10:36:21;;;;;;;15.80;12.20;;;17.90;99.90;;;;;;5065747;28;20048;-44
2024/03/21 10:38:47;;;;;;;15.27;12.05;;;17.80;99.90;;;;;;5070623;28;20045;-44
2024/03/21 10:41:25;;;;;;;14.50;12.57;;;17.70;99.90;;;;;;5067978;28;20052;-43
2024/03/21 10:44:03;;;;;;;14.57;12.50;;;17.60;99.90;;;;;;5064860;28;20036;-47
2024/03/21 10:46:29;;;;;;;15.05;12.82;;;17.50;99.90;;;;;;5068558;28;20055;-45
2024/03/21 10:48:59;;;;;;;18.60;14.45;;;17.40;99.90;;;;;;5076666;28;20117;-45
2024/03/21 10:51:26;;;;;;;17.27;14.13;;;16.60;99.90;;;;;;5074371;28;20223;-46
2024/03/21 10:53:59;;;;;;;18.23;13.52;;;16.40;99.90;;;;;;5072592;28;20036;-46
2024/03/21 10:56:36;;;;;;;17.45;13.23;;;16.60;99.90;;;;;;5069534;28;20828;-44
2024/03/21 10:59:04;;;;;;;18.45;13.68;;;16.70;99.90;;;;;;5069306;28;20047;-47
2024/03/21 11:01:41;;;;;;;18.85;14.13;;;16.90;99.90;;;;;;5070542;28;20063;-42
2024/03/21 11:04:14;;;;;;;13.90;11.95;;;17.20;99.90;;;;;;5066184;28;20040;-46
2024/03/21 11:06:41;;;;;;;14.93;13.25;;;17.30;99.90;;;;;;5069610;28;20036;-46
2024/03/21 11:09:13;;;;;;;15.80;13.20;;;17.30;99.90;;;;;;5065858;28;20036;-45
2024/03/21 11:11:39;;;;;;;16.55;13.40;;;17.50;99.90;;;;;;5070921;28;20040;-46
2024/03/21 11:14:07;;;;;;;14.25;12.52;;;17.70;99.90;;;;;;5069635;28;20056;-47
2024/03/21 11:16:33;;;;;;;18.00;13.55;;;18.60;99.90;;;;;;5072682;28;20572;-47
2024/03/21 11:18:59;;;;;;;14.90;12.90;;;18.80;99.90;;;;;;5060390;28;20265;-47
2024/03/21 11:21:25;;;;;;;15.77;12.95;;;18.30;99.90;;;;;;5069741;28;20508;-46
2024/03/21 11:23:51;;;;;;;17.73;12.77;;;18.40;99.90;;;;;;5056054;28;20048;-44
2024/03/21 11:26:19;;;;;;;16.25;13.68;;;18.60;99.90;;;;;;5078050;28;20032;-44
2024/03/21 11:28:49;;;;;;;17.77;13.18;;;18.60;99.90;;;;;;5071373;28;20047;-43
2024/03/21 11:31:23;;;;;;;17.60;13.90;;;18.50;99.90;;;;;;5068605;28;20037;-48
2024/03/21 11:33:50;;;;;;;18.85;14.38;;;18.40;99.90;;;;;;5070706;28;20114;-52
2024/03/21 11:36:18;;;;;;;16.60;14.23;;;17.70;99.90;;;;;;5066184;28;20166;-45
2024/03/21 11:38:45;;;;;;;17.23;13.15;;;16.90;99.90;;;;;;5070964;28;20048;-46
2024/03/21 11:41:20;;;;;;;21.90;15.68;;;16.40;99.90;;;;;;5059877;28;20094;-45
2024/03/21 11:43:50;;;;;;;19.40;14.52;;;15.30;99.90;;;;;;5065848;28;20081;-48
2024/03/21 11:46:19;;;;;;;18.63;14.05;;;14.60;99.90;;;;;;5054927;28;20586;-48
2024/03/21 11:49:04;;;;;;;17.50;12.90;;;14.10;99.90;;;;;;5063862;28;20147;-42
2024/03/21 11:51:32;;;;;;;13.82;10.45;;;13.80;99.90;;;;;;5078791;28;20052;-45
2024/03/21 11:54:03;;;;;;;11.15;8.15;;;13.90;99.90;;;;;;5072144;28;20043;-45
2024/03/21 11:56:30;;;;;;;11.55;8.82;;;14.10;99.90;;;;;;5064255;28;20048;-46
2024/03/21 11:58:56;;;;;;;14.43;9.07;;;14.10;99.90;;;;;;5063226;28;20824;-43
2024/03/21 12:01:22;;;;;;;13.43;10.43;;;14.30;99.90;;;;;;5067567;28;20082;-43
2024/03/21 12:03:48;;;;;;;14.65;11.40;;;14.40;99.90;;;;;;5063607;28;20043;-45
2024/03/21 12:06:14;;;;;;;17.00;11.93;;;14.50;99.90;;;;;;5062489;28;20441;-43
2024/03/21 12:08:40;;;;;;;14.60;11.40;;;14.90;99.90;;;;;;5065134;28;20128;-45
2024/03/21 12:11:12;;;;;;;19.58;12.38;;;15.30;99.90;;;;;;5073389;28;20037;-45
2024/03/21 12:13:40;;;;;;;19.45;12.07;;;15.50;99.90;;;;;;5065948;28;20428;-42
2024/03/21 12:16:14;;;;;;;21.08;13.25;;;15.50;99.90;;;;;;5068716;28;20079;-47
2024/03/21 12:18:40;;;;;;;17.25;13.00;;;15.60;99.90;;;;;;5069255;28;20052;-47
2024/03/21 12:21:13;;;;;;;21.77;14.10;;;15.60;99.90;;;;;;5071037;28;20114;-46
2024/03/21 12:23:39;;;;;;;19.13;13.90;;;15.50;99.90;;;;;;5067208;28;20037;-50
2024/03/21 12:26:05;;;;;;;18.23;13.68;;;16.10;99.90;;;;;;5068837;28;20041;-46
2024/03/21 12:28:31;;;;;;;17.60;13.40;;;16.10;99.90;;;;;;5067562;28;20032;-42
2024/03/21 12:30:57;;;;;;;17.45;13.32;;;16.30;99.90;;;;;;5064674;28;20120;-42
2024/03/21 12:33:24;;;;;;;16.65;13.20;;;16.40;99.90;;;;;;5074066;28;20094;-47
2024/03/21 12:35:50;;;;;;;15.32;13.02;;;16.20;99.90;;;;;;5062447;28;20040;-48
2024/03/21 12:38:16;;;;;;;21.77;13.75;;;16.90;99.90;;;;;;5077793;28;20086;-46